sensor_id;sensor_type;location;lat;lon;timestamp;P1;durP1;ratioP1;P2;durP2;ratioP2
35205;SDS011;46555;45.620;13.796;2022-08-21T00:01:24;4.20;;;1.55;;
35205;SDS011;46555;45.620;13.796;2022-08-21T00:03:51;6.05;;;1.40;;
35205;SDS011;46555;45.620;13.796;2022-08-21T00:06:17;3.70;;;1.30;;
35205;SDS011;46555;45.620;13.796;2022-08-21T00:08:43;1.75;;;1.48;;
35205;SDS011;46555;45.620;13.796;2022-08-21T00:11:09;3.67;;;1.40;;
35205;SDS011;46555;45.620;13.796;2022-08-21T00:13:35;0.90;;;0.90;;
35205;SDS011;46555;45.620;13.796;2022-08-21T00:16:02;3.35;;;1.30;;
35205;SDS011;46555;45.620;13.796;2022-08-21T00:18:29;1.13;;;1.00;;
35205;SDS011;46555;45.620;13.796;2022-08-21T00:20:54;2.47;;;1.23;;
35205;SDS011;46555;45.620;13.796;2022-08-21T00:23:20;1.83;;;1.08;;
35205;SDS011;46555;45.620;13.796;2022-08-21T00:25:46;3.67;;;1.20;;
35205;SDS011;46555;45.620;13.796;2022-08-21T00:28:12;1.50;;;1.23;;
35205;SDS011;46555;45.620;13.796;2022-08-21T00:30:38;2.17;;;1.40;;
35205;SDS011;46555;45.620;13.796;2022-08-21T00:33:05;3.00;;;1.10;;
35205;SDS011;46555;45.620;13.796;2022-08-21T00:35:32;1.00;;;1.00;;
35205;SDS011;46555;45.620;13.796;2022-08-21T00:38:01;2.00;;;1.20;;
35205;SDS011;46555;45.620;13.796;2022-08-21T00:40:29;1.95;;;1.13;;
35205;SDS011;46555;45.620;13.796;2022-08-21T00:42:57;1.80;;;1.20;;
35205;SDS011;46555;45.620;13.796;2022-08-21T00:45:24;1.10;;;1.00;;
35205;SDS011;46555;45.620;13.796;2022-08-21T00:47:50;3.42;;;1.00;;
35205;SDS011;46555;45.620;13.796;2022-08-21T00:50:17;1.98;;;1.20;;
35205;SDS011;46555;45.620;13.796;2022-08-21T00:52:45;1.10;;;0.85;;
35205;SDS011;46555;45.620;13.796;2022-08-21T00:55:11;0.90;;;0.90;;
35205;SDS011;46555;45.620;13.796;2022-08-21T00:57:48;3.40;;;1.08;;
35205;SDS011;46555;45.620;13.796;2022-08-21T01:00:18;2.15;;;1.17;;
35205;SDS011;46555;45.620;13.796;2022-08-21T01:02:46;2.20;;;1.08;;
35205;SDS011;46555;45.620;13.796;2022-08-21T01:05:12;1.48;;;1.05;;
35205;SDS011;46555;45.620;13.796;2022-08-21T01:07:38;0.95;;;0.90;;
35205;SDS011;46555;45.620;13.796;2022-08-21T01:10:05;2.13;;;1.05;;
35205;SDS011;46555;45.620;13.796;2022-08-21T01:12:31;0.90;;;0.90;;
35205;SDS011;46555;45.620;13.796;2022-08-21T01:14:58;2.08;;;1.27;;
35205;SDS011;46555;45.620;13.796;2022-08-21T01:17:24;1.00;;;1.00;;
35205;SDS011;46555;45.620;13.796;2022-08-21T01:19:51;1.95;;;1.10;;
35205;SDS011;46555;45.620;13.796;2022-08-21T01:22:18;4.88;;;1.13;;
35205;SDS011;46555;45.620;13.796;2022-08-21T01:24:44;1.55;;;1.33;;
35205;SDS011;46555;45.620;13.796;2022-08-21T01:27:10;2.03;;;1.38;;
35205;SDS011;46555;45.620;13.796;2022-08-21T01:29:38;1.45;;;1.05;;
35205;SDS011;46555;45.620;13.796;2022-08-21T01:32:09;1.83;;;1.20;;
35205;SDS011;46555;45.620;13.796;2022-08-21T01:34:39;1.33;;;1.20;;
35205;SDS011;46555;45.620;13.796;2022-08-21T01:37:07;3.33;;;1.10;;
35205;SDS011;46555;45.620;13.796;2022-08-21T01:39:33;1.20;;;1.00;;
35205;SDS011;46555;45.620;13.796;2022-08-21T01:41:59;3.30;;;1.02;;
35205;SDS011;46555;45.620;13.796;2022-08-21T01:44:25;1.23;;;1.05;;
35205;SDS011;46555;45.620;13.796;2022-08-21T01:46:51;1.70;;;1.02;;
35205;SDS011;46555;45.620;13.796;2022-08-21T01:49:18;0.93;;;0.93;;
35205;SDS011;46555;45.620;13.796;2022-08-21T01:51:44;0.95;;;0.80;;
35205;SDS011;46555;45.620;13.796;2022-08-21T01:54:10;0.93;;;0.65;;
35205;SDS011;46555;45.620;13.796;2022-08-21T01:56:40;0.82;;;0.82;;
35205;SDS011;46555;45.620;13.796;2022-08-21T01:59:08;2.10;;;1.10;;
35205;SDS011;46555;45.620;13.796;2022-08-21T02:01:34;1.08;;;0.90;;
35205;SDS011;46555;45.620;13.796;2022-08-21T02:04:00;2.05;;;1.00;;
35205;SDS011;46555;45.620;13.796;2022-08-21T02:06:26;7.53;;;1.20;;
35205;SDS011;46555;45.620;13.796;2022-08-21T02:08:52;1.35;;;1.00;;
35205;SDS011;46555;45.620;13.796;2022-08-21T02:11:18;1.48;;;0.98;;
35205;SDS011;46555;45.620;13.796;2022-08-21T02:13:44;3.05;;;0.90;;
35205;SDS011;46555;45.620;13.796;2022-08-21T02:16:10;1.48;;;1.00;;
35205;SDS011;46555;45.620;13.796;2022-08-21T02:18:37;2.30;;;1.02;;
35205;SDS011;46555;45.620;13.796;2022-08-21T02:21:03;1.42;;;0.90;;
35205;SDS011;46555;45.620;13.796;2022-08-21T02:23:30;0.98;;;0.98;;
35205;SDS011;46555;45.620;13.796;2022-08-21T02:25:57;1.27;;;1.10;;
35205;SDS011;46555;45.620;13.796;2022-08-21T02:28:24;1.20;;;1.10;;
35205;SDS011;46555;45.620;13.796;2022-08-21T02:30:50;3.28;;;1.20;;
35205;SDS011;46555;45.620;13.796;2022-08-21T02:33:17;1.15;;;1.08;;
35205;SDS011;46555;45.620;13.796;2022-08-21T02:35:43;1.23;;;1.00;;
35205;SDS011;46555;45.620;13.796;2022-08-21T02:38:16;1.98;;;1.17;;
35205;SDS011;46555;45.620;13.796;2022-08-21T02:40:45;1.00;;;1.00;;
35205;SDS011;46555;45.620;13.796;2022-08-21T02:43:12;1.17;;;1.02;;
35205;SDS011;46555;45.620;13.796;2022-08-21T02:45:40;1.17;;;1.08;;
35205;SDS011;46555;45.620;13.796;2022-08-21T02:48:08;1.10;;;1.00;;
35205;SDS011;46555;45.620;13.796;2022-08-21T02:50:36;0.98;;;0.98;;
35205;SDS011;46555;45.620;13.796;2022-08-21T02:53:04;1.98;;;1.30;;
35205;SDS011;46555;45.620;13.796;2022-08-21T02:55:31;2.03;;;1.10;;
35205;SDS011;46555;45.620;13.796;2022-08-21T02:57:59;1.23;;;1.23;;
35205;SDS011;46555;45.620;13.796;2022-08-21T03:00:26;0.98;;;0.98;;
35205;SDS011;46555;45.620;13.796;2022-08-21T03:02:55;4.53;;;1.10;;
35205;SDS011;46555;45.620;13.796;2022-08-21T03:05:22;1.58;;;1.27;;
35205;SDS011;46555;45.620;13.796;2022-08-21T03:07:49;1.20;;;1.10;;
35205;SDS011;46555;45.620;13.796;2022-08-21T03:10:17;1.42;;;1.13;;
35205;SDS011;46555;45.620;13.796;2022-08-21T03:12:45;1.58;;;1.15;;
35205;SDS011;46555;45.620;13.796;2022-08-21T03:15:11;2.53;;;1.23;;
35205;SDS011;46555;45.620;13.796;2022-08-21T03:17:38;1.27;;;1.17;;
35205;SDS011;46555;45.620;13.796;2022-08-21T03:20:05;1.60;;;1.17;;
35205;SDS011;46555;45.620;13.796;2022-08-21T03:22:33;1.17;;;1.10;;
35205;SDS011;46555;45.620;13.796;2022-08-21T03:24:59;2.20;;;1.13;;
35205;SDS011;46555;45.620;13.796;2022-08-21T03:27:26;1.50;;;0.95;;
35205;SDS011;46555;45.620;13.796;2022-08-21T03:29:53;1.52;;;1.02;;
35205;SDS011;46555;45.620;13.796;2022-08-21T03:32:20;1.60;;;1.30;;
35205;SDS011;46555;45.620;13.796;2022-08-21T03:34:46;1.60;;;1.00;;
35205;SDS011;46555;45.620;13.796;2022-08-21T03:37:12;2.70;;;1.63;;
35205;SDS011;46555;45.620;13.796;2022-08-21T03:39:38;1.48;;;1.15;;
35205;SDS011;46555;45.620;13.796;2022-08-21T03:42:06;1.27;;;1.23;;
35205;SDS011;46555;45.620;13.796;2022-08-21T03:44:33;2.13;;;1.45;;
35205;SDS011;46555;45.620;13.796;2022-08-21T03:46:59;2.97;;;1.30;;
35205;SDS011;46555;45.620;13.796;2022-08-21T03:49:26;1.15;;;1.10;;
35205;SDS011;46555;45.620;13.796;2022-08-21T03:51:52;1.52;;;1.08;;
35205;SDS011;46555;45.620;13.796;2022-08-21T03:54:21;4.07;;;1.63;;
35205;SDS011;46555;45.620;13.796;2022-08-21T03:56:47;1.52;;;1.30;;
35205;SDS011;46555;45.620;13.796;2022-08-21T03:59:13;1.35;;;1.20;;
35205;SDS011;46555;45.620;13.796;2022-08-21T04:01:39;5.60;;;1.40;;
35205;SDS011;46555;45.620;13.796;2022-08-21T04:04:05;2.38;;;1.40;;
35205;SDS011;46555;45.620;13.796;2022-08-21T04:06:30;5.38;;;1.10;;
35205;SDS011;46555;45.620;13.796;2022-08-21T04:08:56;1.40;;;1.27;;
35205;SDS011;46555;45.620;13.796;2022-08-21T04:11:23;1.92;;;1.48;;
35205;SDS011;46555;45.620;13.796;2022-08-21T04:13:49;2.35;;;1.33;;
35205;SDS011;46555;45.620;13.796;2022-08-21T04:16:14;1.77;;;1.40;;
35205;SDS011;46555;45.620;13.796;2022-08-21T04:18:40;3.40;;;1.30;;
35205;SDS011;46555;45.620;13.796;2022-08-21T04:21:07;3.30;;;1.35;;
35205;SDS011;46555;45.620;13.796;2022-08-21T04:23:35;1.73;;;1.30;;
35205;SDS011;46555;45.620;13.796;2022-08-21T04:26:01;1.42;;;1.23;;
35205;SDS011;46555;45.620;13.796;2022-08-21T04:28:27;1.33;;;1.20;;
35205;SDS011;46555;45.620;13.796;2022-08-21T04:30:53;2.33;;;1.40;;
35205;SDS011;46555;45.620;13.796;2022-08-21T04:33:20;2.28;;;1.52;;
35205;SDS011;46555;45.620;13.796;2022-08-21T04:35:47;2.60;;;1.40;;
35205;SDS011;46555;45.620;13.796;2022-08-21T04:38:13;4.60;;;1.42;;
35205;SDS011;46555;45.620;13.796;2022-08-21T04:40:39;5.07;;;1.30;;
35205;SDS011;46555;45.620;13.796;2022-08-21T04:43:06;2.28;;;1.50;;
35205;SDS011;46555;45.620;13.796;2022-08-21T04:45:39;3.70;;;1.58;;
35205;SDS011;46555;45.620;13.796;2022-08-21T04:48:10;10.60;;;1.45;;
35205;SDS011;46555;45.620;13.796;2022-08-21T04:50:43;2.45;;;1.40;;
35205;SDS011;46555;45.620;13.796;2022-08-21T04:56:32;3.80;;;1.60;;
35205;SDS011;46555;45.620;13.796;2022-08-21T04:59:00;2.15;;;1.13;;
35205;SDS011;46555;45.620;13.796;2022-08-21T05:01:29;1.50;;;1.35;;
35205;SDS011;46555;45.620;13.796;2022-08-21T05:04:00;2.13;;;1.23;;
35205;SDS011;46555;45.620;13.796;2022-08-21T05:06:28;1.25;;;1.08;;
35205;SDS011;46555;45.620;13.796;2022-08-21T05:08:56;3.83;;;1.50;;
35205;SDS011;46555;45.620;13.796;2022-08-21T05:11:23;3.67;;;1.40;;
35205;SDS011;46555;45.620;13.796;2022-08-21T05:13:49;3.33;;;1.23;;
35205;SDS011;46555;45.620;13.796;2022-08-21T05:16:15;4.57;;;1.40;;
35205;SDS011;46555;45.620;13.796;2022-08-21T05:18:41;3.17;;;1.42;;
35205;SDS011;46555;45.620;13.796;2022-08-21T05:21:07;6.72;;;1.20;;
35205;SDS011;46555;45.620;13.796;2022-08-21T05:23:34;3.45;;;1.50;;
35205;SDS011;46555;45.620;13.796;2022-08-21T05:26:00;2.28;;;1.30;;
35205;SDS011;46555;45.620;13.796;2022-08-21T05:28:26;1.30;;;1.30;;
35205;SDS011;46555;45.620;13.796;2022-08-21T05:30:52;1.40;;;1.30;;
35205;SDS011;46555;45.620;13.796;2022-08-21T05:33:17;5.28;;;1.70;;
35205;SDS011;46555;45.620;13.796;2022-08-21T05:35:43;2.03;;;1.30;;
35205;SDS011;46555;45.620;13.796;2022-08-21T05:38:09;4.78;;;1.23;;
35205;SDS011;46555;45.620;13.796;2022-08-21T05:40:35;1.30;;;1.20;;
35205;SDS011;46555;45.620;13.796;2022-08-21T05:43:00;1.92;;;1.38;;
35205;SDS011;46555;45.620;13.796;2022-08-21T05:45:27;2.05;;;1.40;;
35205;SDS011;46555;45.620;13.796;2022-08-21T05:47:55;1.38;;;1.27;;
35205;SDS011;46555;45.620;13.796;2022-08-21T05:50:21;3.00;;;1.83;;
35205;SDS011;46555;45.620;13.796;2022-08-21T05:52:47;2.47;;;1.30;;
35205;SDS011;46555;45.620;13.796;2022-08-21T05:55:13;1.70;;;1.45;;
35205;SDS011;46555;45.620;13.796;2022-08-21T05:57:39;2.35;;;1.38;;
35205;SDS011;46555;45.620;13.796;2022-08-21T06:00:07;1.90;;;1.23;;
35205;SDS011;46555;45.620;13.796;2022-08-21T06:02:38;6.75;;;1.48;;
35205;SDS011;46555;45.620;13.796;2022-08-21T06:05:04;2.38;;;1.35;;
35205;SDS011;46555;45.620;13.796;2022-08-21T06:07:31;4.68;;;1.65;;
35205;SDS011;46555;45.620;13.796;2022-08-21T06:09:57;1.77;;;1.30;;
35205;SDS011;46555;45.620;13.796;2022-08-21T06:12:22;1.55;;;1.13;;
35205;SDS011;46555;45.620;13.796;2022-08-21T06:14:48;1.55;;;1.20;;
35205;SDS011;46555;45.620;13.796;2022-08-21T06:17:15;3.50;;;1.50;;
35205;SDS011;46555;45.620;13.796;2022-08-21T06:19:41;2.03;;;1.42;;
35205;SDS011;46555;45.620;13.796;2022-08-21T06:22:07;1.92;;;1.42;;
35205;SDS011;46555;45.620;13.796;2022-08-21T06:24:32;1.83;;;1.30;;
35205;SDS011;46555;45.620;13.796;2022-08-21T06:27:03;3.03;;;1.17;;
35205;SDS011;46555;45.620;13.796;2022-08-21T06:29:30;2.47;;;1.40;;
35205;SDS011;46555;45.620;13.796;2022-08-21T06:31:56;3.90;;;1.90;;
35205;SDS011;46555;45.620;13.796;2022-08-21T06:34:22;1.80;;;1.52;;
35205;SDS011;46555;45.620;13.796;2022-08-21T06:36:48;1.27;;;1.00;;
35205;SDS011;46555;45.620;13.796;2022-08-21T06:39:13;2.63;;;1.30;;
35205;SDS011;46555;45.620;13.796;2022-08-21T06:41:39;2.63;;;1.50;;
35205;SDS011;46555;45.620;13.796;2022-08-21T06:44:05;1.73;;;1.48;;
35205;SDS011;46555;45.620;13.796;2022-08-21T06:46:31;1.70;;;1.33;;
35205;SDS011;46555;45.620;13.796;2022-08-21T06:48:57;1.58;;;1.10;;
35205;SDS011;46555;45.620;13.796;2022-08-21T06:51:23;1.45;;;1.30;;
35205;SDS011;46555;45.620;13.796;2022-08-21T06:53:50;2.67;;;1.30;;
35205;SDS011;46555;45.620;13.796;2022-08-21T06:56:16;2.13;;;1.20;;
35205;SDS011;46555;45.620;13.796;2022-08-21T06:58:43;1.30;;;1.20;;
35205;SDS011;46555;45.620;13.796;2022-08-21T07:01:08;1.77;;;1.10;;
35205;SDS011;46555;45.620;13.796;2022-08-21T07:03:35;3.38;;;1.33;;
35205;SDS011;46555;45.620;13.796;2022-08-21T07:06:04;3.72;;;1.30;;
35205;SDS011;46555;45.620;13.796;2022-08-21T07:08:31;1.33;;;1.23;;
35205;SDS011;46555;45.620;13.796;2022-08-21T07:10:58;1.67;;;1.20;;
35205;SDS011;46555;45.620;13.796;2022-08-21T07:13:25;2.45;;;1.40;;
35205;SDS011;46555;45.620;13.796;2022-08-21T07:15:51;2.05;;;1.08;;
35205;SDS011;46555;45.620;13.796;2022-08-21T07:18:17;3.38;;;1.20;;
35205;SDS011;46555;45.620;13.796;2022-08-21T07:20:44;2.65;;;1.23;;
35205;SDS011;46555;45.620;13.796;2022-08-21T07:23:33;4.03;;;1.30;;
35205;SDS011;46555;45.620;13.796;2022-08-21T07:25:58;1.30;;;1.10;;
35205;SDS011;46555;45.620;13.796;2022-08-21T07:28:27;4.43;;;1.10;;
35205;SDS011;46555;45.620;13.796;2022-08-21T07:30:55;3.92;;;1.10;;
35205;SDS011;46555;45.620;13.796;2022-08-21T07:33:22;1.42;;;1.23;;
35205;SDS011;46555;45.620;13.796;2022-08-21T07:35:48;1.58;;;1.30;;
35205;SDS011;46555;45.620;13.796;2022-08-21T07:38:14;2.60;;;1.10;;
35205;SDS011;46555;45.620;13.796;2022-08-21T07:40:40;1.98;;;1.10;;
35205;SDS011;46555;45.620;13.796;2022-08-21T07:43:06;1.92;;;0.98;;
35205;SDS011;46555;45.620;13.796;2022-08-21T07:45:32;2.55;;;1.40;;
35205;SDS011;46555;45.620;13.796;2022-08-21T07:47:58;10.52;;;1.05;;
35205;SDS011;46555;45.620;13.796;2022-08-21T07:50:24;1.15;;;1.02;;
35205;SDS011;46555;45.620;13.796;2022-08-21T07:52:50;1.85;;;1.30;;
35205;SDS011;46555;45.620;13.796;2022-08-21T07:55:17;2.85;;;1.20;;
35205;SDS011;46555;45.620;13.796;2022-08-21T07:57:45;1.65;;;1.17;;
35205;SDS011;46555;45.620;13.796;2022-08-21T08:00:13;1.60;;;1.50;;
35205;SDS011;46555;45.620;13.796;2022-08-21T08:02:43;1.38;;;1.00;;
35205;SDS011;46555;45.620;13.796;2022-08-21T08:05:11;2.55;;;1.00;;
35205;SDS011;46555;45.620;13.796;2022-08-21T08:07:37;1.92;;;1.20;;
35205;SDS011;46555;45.620;13.796;2022-08-21T08:10:04;7.47;;;1.50;;
35205;SDS011;46555;45.620;13.796;2022-08-21T08:12:32;4.00;;;1.20;;
35205;SDS011;46555;45.620;13.796;2022-08-21T08:14:59;3.72;;;1.40;;
35205;SDS011;46555;45.620;13.796;2022-08-21T08:17:26;1.90;;;1.20;;
35205;SDS011;46555;45.620;13.796;2022-08-21T08:19:52;5.70;;;1.30;;
35205;SDS011;46555;45.620;13.796;2022-08-21T08:22:19;2.97;;;1.10;;
35205;SDS011;46555;45.620;13.796;2022-08-21T08:24:48;1.40;;;1.30;;
35205;SDS011;46555;45.620;13.796;2022-08-21T08:27:15;2.20;;;1.30;;
35205;SDS011;46555;45.620;13.796;2022-08-21T08:29:41;1.83;;;1.40;;
35205;SDS011;46555;45.620;13.796;2022-08-21T08:32:08;2.95;;;1.20;;
35205;SDS011;46555;45.620;13.796;2022-08-21T08:34:34;2.17;;;1.35;;
35205;SDS011;46555;45.620;13.796;2022-08-21T08:37:02;1.63;;;1.40;;
35205;SDS011;46555;45.620;13.796;2022-08-21T08:39:29;1.48;;;1.27;;
35205;SDS011;46555;45.620;13.796;2022-08-21T08:42:04;2.85;;;1.60;;
35205;SDS011;46555;45.620;13.796;2022-08-21T08:44:35;3.35;;;1.60;;
35205;SDS011;46555;45.620;13.796;2022-08-21T08:47:01;3.15;;;1.50;;
35205;SDS011;46555;45.620;13.796;2022-08-21T08:52:24;3.42;;;1.98;;
35205;SDS011;46555;45.620;13.796;2022-08-21T08:57:31;3.70;;;1.90;;
35205;SDS011;46555;45.620;13.796;2022-08-21T08:59:59;2.55;;;1.85;;
35205;SDS011;46555;45.620;13.796;2022-08-21T09:02:27;4.18;;;2.00;;
35205;SDS011;46555;45.620;13.796;2022-08-21T09:04:54;3.22;;;1.73;;
35205;SDS011;46555;45.620;13.796;2022-08-21T09:10:25;1.92;;;1.30;;
35205;SDS011;46555;45.620;13.796;2022-08-21T09:13:01;1.70;;;1.60;;
35205;SDS011;46555;45.620;13.796;2022-08-21T09:21:31;2.83;;;1.50;;
35205;SDS011;46555;45.620;13.796;2022-08-21T09:27:15;3.33;;;1.60;;
35205;SDS011;46555;45.620;13.796;2022-08-21T09:29:44;3.17;;;1.67;;
35205;SDS011;46555;45.620;13.796;2022-08-21T09:32:17;2.25;;;1.50;;
35205;SDS011;46555;45.620;13.796;2022-08-21T09:37:22;5.32;;;1.67;;
35205;SDS011;46555;45.620;13.796;2022-08-21T09:39:48;2.25;;;1.48;;
35205;SDS011;46555;45.620;13.796;2022-08-21T09:42:21;1.88;;;1.52;;
35205;SDS011;46555;45.620;13.796;2022-08-21T09:45:04;4.88;;;1.42;;
35205;SDS011;46555;45.620;13.796;2022-08-21T09:47:43;7.75;;;1.83;;
35205;SDS011;46555;45.620;13.796;2022-08-21T09:50:21;2.72;;;1.25;;
35205;SDS011;46555;45.620;13.796;2022-08-21T09:52:54;3.25;;;1.40;;
35205;SDS011;46555;45.620;13.796;2022-08-21T09:55:30;2.50;;;1.60;;
35205;SDS011;46555;45.620;13.796;2022-08-21T09:58:15;5.07;;;1.90;;
35205;SDS011;46555;45.620;13.796;2022-08-21T10:00:42;1.75;;;1.42;;
35205;SDS011;46555;45.620;13.796;2022-08-21T10:03:15;2.65;;;1.45;;
35205;SDS011;46555;45.620;13.796;2022-08-21T10:05:51;4.32;;;1.55;;
35205;SDS011;46555;45.620;13.796;2022-08-21T10:08:26;4.73;;;1.53;;
35205;SDS011;46555;45.620;13.796;2022-08-21T10:11:01;2.15;;;1.20;;
35205;SDS011;46555;45.620;13.796;2022-08-21T10:24:48;2.03;;;1.35;;
35205;SDS011;46555;45.620;13.796;2022-08-21T10:27:39;1.73;;;1.30;;
35205;SDS011;46555;45.620;13.796;2022-08-21T10:30:41;2.22;;;1.15;;
35205;SDS011;46555;45.620;13.796;2022-08-21T10:38:58;2.60;;;1.10;;
35205;SDS011;46555;45.620;13.796;2022-08-21T10:47:13;2.78;;;1.40;;
35205;SDS011;46555;45.620;13.796;2022-08-21T10:55:22;4.00;;;1.50;;
35205;SDS011;46555;45.620;13.796;2022-08-21T11:00:23;3.95;;;1.17;;
35205;SDS011;46555;45.620;13.796;2022-08-21T11:03:07;1.67;;;1.13;;
35205;SDS011;46555;45.620;13.796;2022-08-21T11:05:54;1.73;;;1.50;;
35205;SDS011;46555;45.620;13.796;2022-08-21T11:08:44;1.27;;;1.13;;
35205;SDS011;46555;45.620;13.796;2022-08-21T11:11:18;2.97;;;1.15;;
35205;SDS011;46555;45.620;13.796;2022-08-21T11:13:47;2.10;;;1.13;;
35205;SDS011;46555;45.620;13.796;2022-08-21T11:19:07;1.20;;;1.10;;
35205;SDS011;46555;45.620;13.796;2022-08-21T11:21:45;3.05;;;1.15;;
35205;SDS011;46555;45.620;13.796;2022-08-21T11:24:37;1.70;;;0.88;;
35205;SDS011;46555;45.620;13.796;2022-08-21T11:29:48;1.70;;;0.93;;
35205;SDS011;46555;45.620;13.796;2022-08-21T11:35:14;2.88;;;0.80;;
35205;SDS011;46555;45.620;13.796;2022-08-21T11:45:39;1.60;;;1.05;;
35205;SDS011;46555;45.620;13.796;2022-08-21T11:51:13;1.95;;;1.00;;
35205;SDS011;46555;45.620;13.796;2022-08-21T11:53:50;5.28;;;1.10;;
35205;SDS011;46555;45.620;13.796;2022-08-21T11:56:23;2.30;;;1.20;;
35205;SDS011;46555;45.620;13.796;2022-08-21T11:59:09;2.47;;;1.10;;
35205;SDS011;46555;45.620;13.796;2022-08-21T12:01:42;1.38;;;1.00;;
35205;SDS011;46555;45.620;13.796;2022-08-21T12:04:16;2.38;;;1.00;;
35205;SDS011;46555;45.620;13.796;2022-08-21T12:06:42;1.20;;;1.10;;
35205;SDS011;46555;45.620;13.796;2022-08-21T12:09:10;1.00;;;0.95;;
35205;SDS011;46555;45.620;13.796;2022-08-21T12:12:23;2.08;;;1.30;;
35205;SDS011;46555;45.620;13.796;2022-08-21T12:14:50;2.15;;;1.10;;
35205;SDS011;46555;45.620;13.796;2022-08-21T12:17:34;2.17;;;1.17;;
35205;SDS011;46555;45.620;13.796;2022-08-21T12:20:26;2.40;;;1.02;;
35205;SDS011;46555;45.620;13.796;2022-08-21T12:23:17;1.52;;;1.00;;
35205;SDS011;46555;45.620;13.796;2022-08-21T12:28:15;2.53;;;0.95;;
35205;SDS011;46555;45.620;13.796;2022-08-21T12:30:48;0.80;;;0.75;;
35205;SDS011;46555;45.620;13.796;2022-08-21T12:33:22;0.88;;;0.73;;
35205;SDS011;46555;45.620;13.796;2022-08-21T12:36:07;2.30;;;0.98;;
35205;SDS011;46555;45.620;13.796;2022-08-21T12:41:26;4.93;;;0.90;;
35205;SDS011;46555;45.620;13.796;2022-08-21T12:49:23;2.58;;;1.13;;
35205;SDS011;46555;45.620;13.796;2022-08-21T12:52:01;2.53;;;1.00;;
35205;SDS011;46555;45.620;13.796;2022-08-21T12:54:49;1.73;;;1.00;;
35205;SDS011;46555;45.620;13.796;2022-08-21T12:57:22;2.25;;;1.00;;
35205;SDS011;46555;45.620;13.796;2022-08-21T12:59:56;2.55;;;1.20;;
35205;SDS011;46555;45.620;13.796;2022-08-21T13:02:29;9.20;;;1.40;;
35205;SDS011;46555;45.620;13.796;2022-08-21T13:04:57;1.73;;;1.13;;
35205;SDS011;46555;45.620;13.796;2022-08-21T13:07:28;3.13;;;0.98;;
35205;SDS011;46555;45.620;13.796;2022-08-21T13:09:57;3.22;;;1.23;;
35205;SDS011;46555;45.620;13.796;2022-08-21T13:12:29;1.80;;;1.13;;
35205;SDS011;46555;45.620;13.796;2022-08-21T13:14:57;2.58;;;1.15;;
35205;SDS011;46555;45.620;13.796;2022-08-21T13:17:25;2.65;;;1.10;;
35205;SDS011;46555;45.620;13.796;2022-08-21T13:19:53;1.50;;;0.80;;
35205;SDS011;46555;45.620;13.796;2022-08-21T13:22:20;2.70;;;1.00;;
35205;SDS011;46555;45.620;13.796;2022-08-21T13:24:47;2.47;;;1.10;;
35205;SDS011;46555;45.620;13.796;2022-08-21T13:27:18;1.55;;;0.98;;
35205;SDS011;46555;45.620;13.796;2022-08-21T13:29:47;1.17;;;0.98;;
35205;SDS011;46555;45.620;13.796;2022-08-21T13:32:18;6.22;;;0.98;;
35205;SDS011;46555;45.620;13.796;2022-08-21T13:34:48;1.40;;;0.80;;
35205;SDS011;46555;45.620;13.796;2022-08-21T13:37:14;2.53;;;1.30;;
35205;SDS011;46555;45.620;13.796;2022-08-21T13:39:40;2.85;;;0.98;;
35205;SDS011;46555;45.620;13.796;2022-08-21T13:42:08;2.13;;;1.30;;
35205;SDS011;46555;45.620;13.796;2022-08-21T13:44:44;5.18;;;1.30;;
35205;SDS011;46555;45.620;13.796;2022-08-21T13:47:13;3.13;;;1.10;;
35205;SDS011;46555;45.620;13.796;2022-08-21T13:49:41;2.92;;;0.93;;
35205;SDS011;46555;45.620;13.796;2022-08-21T13:52:17;3.60;;;1.00;;
35205;SDS011;46555;45.620;13.796;2022-08-21T13:54:51;3.33;;;1.00;;
35205;SDS011;46555;45.620;13.796;2022-08-21T13:57:23;1.92;;;0.80;;
35205;SDS011;46555;45.620;13.796;2022-08-21T14:03:06;1.48;;;0.80;;
35205;SDS011;46555;45.620;13.796;2022-08-21T14:05:42;0.88;;;0.80;;
35205;SDS011;46555;45.620;13.796;2022-08-21T14:10:43;1.45;;;0.70;;
35205;SDS011;46555;45.620;13.796;2022-08-21T14:16:16;1.00;;;0.80;;
35205;SDS011;46555;45.620;13.796;2022-08-21T14:18:45;0.70;;;0.65;;
35205;SDS011;46555;45.620;13.796;2022-08-21T14:21:14;0.98;;;0.90;;
35205;SDS011;46555;45.620;13.796;2022-08-21T14:24:02;0.80;;;0.80;;
35205;SDS011;46555;45.620;13.796;2022-08-21T14:29:35;4.35;;;1.02;;
35205;SDS011;46555;45.620;13.796;2022-08-21T14:32:10;1.38;;;0.80;;
35205;SDS011;46555;45.620;13.796;2022-08-21T14:34:45;1.98;;;0.80;;
35205;SDS011;46555;45.620;13.796;2022-08-21T14:37:11;1.10;;;0.70;;
35205;SDS011;46555;45.620;13.796;2022-08-21T14:39:37;1.35;;;0.70;;
35205;SDS011;46555;45.620;13.796;2022-08-21T14:42:03;1.58;;;0.80;;
35205;SDS011;46555;45.620;13.796;2022-08-21T14:44:29;1.15;;;0.50;;
35205;SDS011;46555;45.620;13.796;2022-08-21T14:46:56;1.48;;;0.75;;
35205;SDS011;46555;45.620;13.796;2022-08-21T14:49:24;0.50;;;0.50;;
35205;SDS011;46555;45.620;13.796;2022-08-21T14:51:51;1.25;;;0.70;;
35205;SDS011;46555;45.620;13.796;2022-08-21T14:54:22;0.70;;;0.70;;
35205;SDS011;46555;45.620;13.796;2022-08-21T14:56:48;0.60;;;0.60;;
35205;SDS011;46555;45.620;13.796;2022-08-21T14:59:15;0.63;;;0.60;;
35205;SDS011;46555;45.620;13.796;2022-08-21T15:01:41;1.42;;;0.98;;
35205;SDS011;46555;45.620;13.796;2022-08-21T15:04:07;1.08;;;0.70;;
35205;SDS011;46555;45.620;13.796;2022-08-21T15:06:33;1.40;;;0.70;;
35205;SDS011;46555;45.620;13.796;2022-08-21T15:08:59;0.77;;;0.60;;
35205;SDS011;46555;45.620;13.796;2022-08-21T15:11:26;0.70;;;0.70;;
35205;SDS011;46555;45.620;13.796;2022-08-21T15:13:56;2.22;;;0.70;;
35205;SDS011;46555;45.620;13.796;2022-08-21T15:16:26;0.73;;;0.52;;
35205;SDS011;46555;45.620;13.796;2022-08-21T15:18:53;1.60;;;0.70;;
35205;SDS011;46555;45.620;13.796;2022-08-21T15:21:19;1.98;;;1.10;;
35205;SDS011;46555;45.620;13.796;2022-08-21T15:23:45;1.27;;;0.80;;
35205;SDS011;46555;45.620;13.796;2022-08-21T15:26:11;0.70;;;0.70;;
35205;SDS011;46555;45.620;13.796;2022-08-21T15:28:36;1.88;;;0.90;;
35205;SDS011;46555;45.620;13.796;2022-08-21T15:31:03;1.65;;;1.10;;
35205;SDS011;46555;45.620;13.796;2022-08-21T15:33:29;2.13;;;0.70;;
35205;SDS011;46555;45.620;13.796;2022-08-21T15:35:56;1.45;;;0.60;;
35205;SDS011;46555;45.620;13.796;2022-08-21T15:38:22;2.95;;;1.05;;
35205;SDS011;46555;45.620;13.796;2022-08-21T15:40:48;2.80;;;1.00;;
35205;SDS011;46555;45.620;13.796;2022-08-21T15:43:25;1.67;;;0.98;;
35205;SDS011;46555;45.620;13.796;2022-08-21T15:45:52;1.50;;;1.10;;
35205;SDS011;46555;45.620;13.796;2022-08-21T15:48:18;1.60;;;1.10;;
35205;SDS011;46555;45.620;13.796;2022-08-21T15:50:44;9.30;;;1.77;;
35205;SDS011;46555;45.620;13.796;2022-08-21T15:53:11;4.75;;;2.03;;
35205;SDS011;46555;45.620;13.796;2022-08-21T15:55:37;2.53;;;1.98;;
35205;SDS011;46555;45.620;13.796;2022-08-21T15:58:03;5.45;;;3.50;;
35205;SDS011;46555;45.620;13.796;2022-08-21T16:00:30;5.28;;;3.53;;
35205;SDS011;46555;45.620;13.796;2022-08-21T16:02:59;7.10;;;3.67;;
35205;SDS011;46555;45.620;13.796;2022-08-21T16:05:25;5.53;;;3.92;;
35205;SDS011;46555;45.620;13.796;2022-08-21T16:07:51;6.55;;;4.18;;
35205;SDS011;46555;45.620;13.796;2022-08-21T16:10:18;7.30;;;3.20;;
35205;SDS011;46555;45.620;13.796;2022-08-21T16:12:51;5.72;;;2.90;;
35205;SDS011;46555;45.620;13.796;2022-08-21T16:15:22;6.50;;;2.25;;
35205;SDS011;46555;45.620;13.796;2022-08-21T16:17:48;6.35;;;1.70;;
35205;SDS011;46555;45.620;13.796;2022-08-21T16:20:19;7.32;;;1.58;;